createdAt,value
2023-02-22T00:00:07.919Z,84
2023-02-22T00:01:08.509Z,85
2023-02-22T00:02:08.376Z,85
2023-02-22T00:03:08.186Z,85
2023-02-22T00:04:08.882Z,85
2023-02-22T00:05:08.576Z,85
2023-02-22T00:06:08.700Z,85
2023-02-22T00:07:08.444Z,85
2023-02-22T00:08:08.090Z,85
2023-02-22T00:09:07.898Z,85
2023-02-22T00:10:08.806Z,85
2023-02-22T00:11:08.745Z,85
2023-02-22T00:14:07.832Z,85
2023-02-22T00:15:08.506Z,85
2023-02-22T00:16:08.489Z,85
2023-02-22T00:17:07.989Z,85
2023-02-22T00:18:08.342Z,85
2023-02-22T00:19:08.100Z,85
2023-02-22T00:20:08.029Z,85
2023-02-22T00:21:08.787Z,85
2023-02-22T00:22:08.322Z,85
2023-02-22T00:25:07.944Z,85
2023-02-22T00:26:08.160Z,85
2023-02-22T00:27:08.052Z,85
2023-02-22T00:28:08.593Z,85
2023-02-22T00:30:08.239Z,85
2023-02-22T00:31:08.305Z,85
2023-02-22T00:32:08.374Z,85
2023-02-22T00:33:08.759Z,85
2023-02-22T00:34:08.433Z,85
2023-02-22T00:35:08.217Z,85
2023-02-22T00:36:08.348Z,85
2023-02-22T00:37:08.014Z,85
2023-02-22T00:38:08.758Z,85
2023-02-22T00:39:08.305Z,85
2023-02-22T00:40:08.304Z,85
2023-02-22T00:41:08.448Z,85
2023-02-22T00:42:08.303Z,85
2023-02-22T00:43:08.123Z,85
2023-02-22T00:44:07.818Z,85
2023-02-22T00:45:08.402Z,85
2023-02-22T00:46:08.887Z,85
2023-02-22T00:47:08.311Z,85
2023-02-22T00:48:07.928Z,85
2023-02-22T00:49:07.698Z,85
2023-02-22T00:50:08.701Z,85
2023-02-22T00:52:07.760Z,85
2023-02-22T00:53:08.839Z,85
2023-02-22T00:54:08.701Z,86
2023-02-22T00:55:08.363Z,85
2023-02-22T00:56:08.591Z,85
2023-02-22T00:57:08.209Z,86
2023-02-22T00:58:07.859Z,86
2023-02-22T00:59:08.875Z,86
2023-02-22T01:00:08.432Z,86
2023-02-22T01:01:08.967Z,86
2023-02-22T01:03:08.414Z,86
2023-02-22T01:05:08.933Z,86
2023-02-22T01:07:08.685Z,86
2023-02-22T01:08:08.546Z,86
2023-02-22T01:09:08.372Z,86
2023-02-22T01:12:08.023Z,86
2023-02-22T01:13:09.242Z,86
2023-02-22T01:14:08.408Z,86
2023-02-22T01:15:08.335Z,86
2023-02-22T01:16:08.060Z,86
2023-02-22T01:17:08.747Z,86
2023-02-22T01:18:08.748Z,86
2023-02-22T01:19:08.437Z,86
2023-02-22T01:20:08.019Z,86
2023-02-22T01:21:07.902Z,86
2023-02-22T01:23:08.270Z,86
2023-02-22T01:24:08.241Z,86
2023-02-22T01:26:08.336Z,86
2023-02-22T01:27:08.219Z,86
2023-02-22T01:28:07.855Z,86
2023-02-22T01:29:07.607Z,86
2023-02-22T01:30:08.716Z,86
2023-02-22T01:31:08.181Z,86
2023-02-22T01:32:08.862Z,86
2023-02-22T01:33:08.372Z,86
2023-02-22T01:36:07.993Z,86
2023-02-22T01:37:08.477Z,86
2023-02-22T01:38:08.366Z,86
2023-02-22T01:39:08.095Z,86
2023-02-22T01:40:07.800Z,86
2023-02-22T01:41:07.781Z,86
2023-02-22T01:42:08.505Z,86
2023-02-22T01:43:08.529Z,86
2023-02-22T01:44:08.264Z,86
2023-02-22T01:46:08.382Z,86
2023-02-22T01:47:07.967Z,86
2023-02-22T01:48:08.673Z,86
2023-02-22T01:50:08.407Z,86
2023-02-22T01:51:08.982Z,86
2023-02-22T01:52:08.357Z,86
2023-02-22T01:55:08.671Z,86
2023-02-22T01:56:07.987Z,86
2023-02-22T01:57:08.689Z,86
2023-02-22T01:58:08.264Z,86
2023-02-22T01:59:08.278Z,86
2023-02-22T02:00:08.018Z,86
2023-02-22T02:01:08.045Z,86
2023-02-22T02:02:07.906Z,86
2023-02-22T02:03:08.680Z,86
2023-02-22T02:04:08.506Z,86
2023-02-22T02:05:08.575Z,86
2023-02-22T02:06:08.188Z,86
2023-02-22T02:07:08.153Z,86
2023-02-22T02:08:08.724Z,86
2023-02-22T02:10:08.263Z,86
2023-02-22T02:11:11.021Z,86
2023-02-22T02:12:08.115Z,86
2023-02-22T02:13:08.580Z,86
2023-02-22T02:14:08.178Z,86
2023-02-22T02:15:08.205Z,86
2023-02-22T02:16:08.289Z,86
2023-02-22T02:17:08.113Z,86
2023-02-22T02:18:08.468Z,86
2023-02-22T02:19:08.279Z,86
2023-02-22T02:20:08.178Z,86
2023-02-22T02:21:08.308Z,86
2023-02-22T02:23:07.861Z,86
2023-02-22T02:24:08.544Z,86
2023-02-22T02:25:08.320Z,86
2023-02-22T02:27:08.267Z,86
2023-02-22T02:28:07.975Z,86
2023-02-22T02:29:08.515Z,86
2023-02-22T02:30:08.363Z,86
2023-02-22T02:31:08.552Z,86
2023-02-22T02:32:08.972Z,86
2023-02-22T02:34:07.744Z,86
2023-02-22T02:35:08.592Z,86
2023-02-22T02:36:08.412Z,86
2023-02-22T02:37:08.124Z,86
2023-02-22T02:38:08.790Z,86
2023-02-22T02:39:08.679Z,86
2023-02-22T02:40:08.538Z,86
2023-02-22T02:41:07.878Z,86
2023-02-22T02:42:08.674Z,86
2023-02-22T02:43:08.232Z,86
2023-02-22T02:44:07.992Z,86
2023-02-22T02:45:08.710Z,86
2023-02-22T02:46:08.074Z,86
2023-02-22T02:47:08.958Z,87
2023-02-22T02:48:08.449Z,87
2023-02-22T02:49:08.198Z,87
2023-02-22T02:50:08.011Z,87
2023-02-22T02:51:08.082Z,87
2023-02-22T02:52:07.818Z,87
2023-02-22T02:53:08.411Z,87
2023-02-22T02:54:08.023Z,87
2023-02-22T02:55:08.111Z,87
2023-02-22T02:57:07.878Z,87
2023-02-22T02:58:08.617Z,87
2023-02-22T02:59:08.365Z,87
2023-02-22T03:00:08.522Z,87
2023-02-22T03:01:08.357Z,87
2023-02-22T03:02:08.265Z,87
2023-02-22T03:03:07.992Z,87
2023-02-22T03:04:08.723Z,87
2023-02-22T03:05:08.369Z,87
2023-02-22T03:06:08.471Z,87
2023-02-22T03:07:08.455Z,87
2023-02-22T03:08:08.181Z,87
2023-02-22T03:10:08.322Z,87
2023-02-22T03:11:07.844Z,87
2023-02-22T03:12:08.384Z,87
2023-02-22T03:13:08.216Z,87
2023-02-22T03:14:07.769Z,87
2023-02-22T03:15:08.595Z,87
2023-02-22T03:16:08.385Z,87
2023-02-22T03:18:08.428Z,87
2023-02-22T03:19:08.132Z,87
2023-02-22T03:21:08.102Z,87
2023-02-22T03:23:08.904Z,87
2023-02-22T03:24:08.360Z,87
2023-02-22T03:25:08.204Z,87
2023-02-22T03:26:08.358Z,87
2023-02-22T03:27:08.015Z,87
2023-02-22T03:28:08.610Z,87
2023-02-22T03:29:08.344Z,87
2023-02-22T03:31:08.681Z,87
2023-02-22T03:33:08.310Z,87
2023-02-22T03:34:07.885Z,87
2023-02-22T03:35:08.804Z,87
2023-02-22T03:36:07.772Z,87
2023-02-22T03:37:08.597Z,87
2023-02-22T03:38:08.336Z,87
2023-02-22T03:39:08.135Z,87
2023-02-22T03:40:08.732Z,87
2023-02-22T03:41:07.621Z,87
2023-02-22T03:42:08.611Z,87
2023-02-22T03:43:08.526Z,87
2023-02-22T03:44:07.803Z,88
2023-02-22T03:45:08.763Z,88
2023-02-22T03:46:08.385Z,88
2023-02-22T03:49:08.592Z,88
2023-02-22T03:50:08.136Z,88
2023-02-22T03:51:08.378Z,88
2023-02-22T03:52:08.254Z,88
2023-02-22T03:53:08.055Z,88
2023-02-22T03:54:07.884Z,88
2023-02-22T03:55:08.830Z,88
2023-02-22T03:56:07.801Z,88
2023-02-22T03:57:08.528Z,88
2023-02-22T03:58:08.315Z,88
2023-02-22T03:59:08.039Z,88
2023-02-22T04:00:08.568Z,88
2023-02-22T04:01:08.033Z,88
2023-02-22T04:02:08.422Z,88
2023-02-22T04:03:08.862Z,88
2023-02-22T04:04:08.256Z,88
2023-02-22T04:05:08.226Z,88
2023-02-22T04:06:08.271Z,88
2023-02-22T04:08:08.670Z,88
2023-02-22T04:10:08.068Z,88
2023-02-22T04:11:08.309Z,88
2023-02-22T04:12:07.955Z,88
2023-02-22T04:13:08.911Z,88
2023-02-22T04:14:08.416Z,88
2023-02-22T04:15:08.377Z,88
2023-02-22T04:16:08.598Z,88
2023-02-22T04:17:08.236Z,88
2023-02-22T04:21:08.679Z,88
2023-02-22T04:23:08.114Z,88
2023-02-22T04:24:07.804Z,88
2023-02-22T04:25:08.115Z,88
2023-02-22T04:26:08.058Z,88
2023-02-22T04:27:08.777Z,88
2023-02-22T04:28:08.444Z,88
2023-02-22T04:29:08.094Z,88
2023-02-22T04:30:08.032Z,88
2023-02-22T04:31:08.396Z,88
2023-02-22T04:32:07.888Z,88
2023-02-22T04:33:08.762Z,88
2023-02-22T04:34:08.420Z,88
2023-02-22T04:35:08.233Z,88
2023-02-22T04:36:08.816Z,88
2023-02-22T04:37:08.569Z,88
2023-02-22T04:39:07.954Z,88
2023-02-22T04:40:08.698Z,88
2023-02-22T04:41:08.340Z,88
2023-02-22T04:43:08.058Z,88
2023-02-22T04:46:08.210Z,88
2023-02-22T04:47:07.886Z,88
2023-02-22T04:48:08.462Z,88
2023-02-22T04:49:08.296Z,88
2023-02-22T04:50:07.833Z,88
2023-02-22T04:51:08.198Z,88
2023-02-22T04:52:08.001Z,88
2023-02-22T04:53:07.480Z,88
2023-02-22T04:54:08.403Z,88
2023-02-22T04:55:08.436Z,88
2023-02-22T04:57:08.302Z,88
2023-02-22T04:58:10.201Z,88
2023-02-22T04:59:07.955Z,88
2023-02-22T05:00:08.481Z,88
2023-02-22T05:01:08.438Z,88
2023-02-22T05:02:08.346Z,88
2023-02-22T05:03:08.188Z,88
2023-02-22T05:04:07.714Z,88
2023-02-22T05:05:08.935Z,88
2023-02-22T05:08:07.952Z,88
2023-02-22T05:09:08.634Z,88
2023-02-22T05:10:08.338Z,88
2023-02-22T05:11:08.182Z,88
2023-02-22T05:12:08.749Z,88
2023-02-22T05:13:10.434Z,88
2023-02-22T05:14:08.296Z,88
2023-02-22T05:15:08.179Z,88
2023-02-22T05:16:08.356Z,88
2023-02-22T05:17:08.000Z,88
2023-02-22T05:19:08.616Z,88
2023-02-22T05:20:08.442Z,88
2023-02-22T05:21:08.125Z,88
2023-02-22T05:22:08.889Z,88
2023-02-22T05:23:08.655Z,88
2023-02-22T05:24:08.496Z,88
2023-02-22T05:25:08.361Z,88
2023-02-22T05:26:10.005Z,88
2023-02-22T05:27:08.405Z,88
2023-02-22T05:28:08.141Z,88
2023-02-22T05:29:08.052Z,88
2023-02-22T05:32:08.198Z,88
2023-02-22T05:34:08.363Z,88
2023-02-22T05:35:08.031Z,88
2023-02-22T05:36:08.352Z,88
2023-02-22T05:37:08.144Z,88
2023-02-22T05:38:08.048Z,89
2023-02-22T05:39:08.589Z,89
2023-02-22T05:40:08.593Z,89
2023-02-22T05:41:08.544Z,89
2023-02-22T05:42:08.156Z,89
2023-02-22T05:43:07.961Z,89
2023-02-22T05:44:08.677Z,89
2023-02-22T05:45:08.508Z,88
2023-02-22T05:46:07.999Z,89
2023-02-22T05:47:08.694Z,89
2023-02-22T05:48:08.462Z,89
2023-02-22T05:50:07.983Z,89
2023-02-22T05:51:08.541Z,89
2023-02-22T05:52:08.355Z,89
2023-02-22T05:54:07.804Z,89
2023-02-22T05:55:08.589Z,89
2023-02-22T05:56:07.915Z,89
2023-02-22T05:57:08.672Z,89
2023-02-22T05:58:08.499Z,89
2023-02-22T05:59:08.204Z,89
2023-02-22T06:00:08.065Z,89
2023-02-22T06:01:09.736Z,89
2023-02-22T06:02:08.664Z,89
2023-02-22T06:03:08.241Z,89
2023-02-22T06:04:07.999Z,89
2023-02-22T06:05:08.478Z,89
2023-02-22T06:06:08.807Z,89
2023-02-22T06:07:08.426Z,89
2023-02-22T06:08:08.217Z,89
2023-02-22T06:09:07.767Z,89
2023-02-22T06:10:08.777Z,89
2023-02-22T06:11:08.125Z,89
2023-02-22T06:12:07.813Z,89
2023-02-22T06:13:08.869Z,89
2023-02-22T06:15:08.228Z,89
2023-02-22T06:16:08.652Z,89
2023-02-22T06:17:08.155Z,89
2023-02-22T06:18:07.982Z,89
2023-02-22T06:19:08.895Z,89
2023-02-22T06:21:08.274Z,89
2023-02-22T06:22:08.071Z,89
2023-02-22T06:23:08.793Z,89
2023-02-22T06:24:08.664Z,89
2023-02-22T06:25:08.190Z,89
2023-02-22T06:27:08.054Z,89
2023-02-22T06:28:07.907Z,89
2023-02-22T06:29:08.495Z,89
2023-02-22T06:30:08.469Z,89
2023-02-22T06:31:09.016Z,89
2023-02-22T06:32:08.894Z,89
2023-02-22T06:34:07.988Z,89
2023-02-22T06:35:08.663Z,89
2023-02-22T06:36:08.411Z,89
2023-02-22T06:37:08.242Z,89
2023-02-22T06:38:07.841Z,89
2023-02-22T06:39:08.765Z,89
2023-02-22T06:41:07.854Z,89
2023-02-22T06:42:08.512Z,89
2023-02-22T06:43:08.059Z,89
2023-02-22T06:44:08.776Z,89
2023-02-22T06:45:08.601Z,89
2023-02-22T06:46:08.243Z,89
2023-02-22T06:47:08.661Z,89
2023-02-22T06:48:08.406Z,89
2023-02-22T06:49:08.626Z,89
2023-02-22T06:50:08.674Z,89
2023-02-22T06:51:08.447Z,89
2023-02-22T06:53:08.154Z,89
2023-02-22T06:54:07.788Z,89
2023-02-22T06:55:08.652Z,89
2023-02-22T06:56:08.778Z,89
2023-02-22T06:57:08.569Z,89
2023-02-22T06:58:08.214Z,89
2023-02-22T06:59:09.049Z,89
2023-02-22T07:00:08.655Z,89
2023-02-22T07:01:08.203Z,89
2023-02-22T07:02:07.703Z,89
2023-02-22T07:03:08.638Z,89
2023-02-22T07:04:08.278Z,89
2023-02-22T07:05:08.084Z,89
2023-02-22T07:06:08.211Z,89
2023-02-22T07:07:08.019Z,89
2023-02-22T07:08:08.832Z,89
2023-02-22T07:09:08.479Z,89
2023-02-22T07:10:08.673Z,89
2023-02-22T07:11:08.336Z,89
2023-02-22T07:12:08.019Z,89
2023-02-22T07:13:07.986Z,89
2023-02-22T07:14:08.567Z,89
2023-02-22T07:15:08.604Z,89
2023-02-22T07:16:08.915Z,89
2023-02-22T07:17:08.308Z,89
2023-02-22T07:18:08.347Z,89
2023-02-22T07:19:07.917Z,89
2023-02-22T07:20:08.861Z,89
2023-02-22T07:21:07.909Z,89
2023-02-22T07:22:08.784Z,89
2023-02-22T07:23:08.400Z,89
2023-02-22T07:24:10.762Z,89
2023-02-22T07:25:07.890Z,89
2023-02-22T07:26:07.945Z,89
2023-02-22T07:27:08.547Z,89
2023-02-22T07:29:07.933Z,89
2023-02-22T07:30:08.783Z,89
2023-02-22T07:31:08.805Z,89
2023-02-22T07:32:08.819Z,89
2023-02-22T07:33:08.717Z,89
2023-02-22T07:35:07.650Z,89
2023-02-22T07:36:08.041Z,89
2023-02-22T07:37:07.999Z,89
2023-02-22T07:38:08.518Z,89
2023-02-22T07:39:08.456Z,89
2023-02-22T07:40:08.191Z,89
2023-02-22T07:41:07.687Z,89
2023-02-22T07:42:08.715Z,89
2023-02-22T07:43:11.022Z,89
2023-02-22T07:44:07.962Z,89
2023-02-22T07:45:07.946Z,89
2023-02-22T07:47:08.675Z,89
2023-02-22T07:48:08.288Z,89
2023-02-22T07:50:07.941Z,89
2023-02-22T07:51:07.866Z,89
2023-02-22T07:52:07.823Z,89
2023-02-22T07:53:08.453Z,89
2023-02-22T07:55:07.964Z,89
2023-02-22T07:56:08.165Z,89
2023-02-22T07:57:08.625Z,89
2023-02-22T07:59:08.048Z,89
2023-02-22T08:00:08.605Z,89
2023-02-22T08:01:07.997Z,89
2023-02-22T08:02:08.701Z,89
2023-02-22T08:03:08.510Z,89
2023-02-22T08:04:08.117Z,89
2023-02-22T08:05:08.213Z,89
2023-02-22T08:06:08.090Z,89
2023-02-22T08:07:08.023Z,88
2023-02-22T08:08:08.755Z,88
2023-02-22T08:09:08.461Z,88
2023-02-22T08:10:08.210Z,88
2023-02-22T08:11:08.382Z,88
2023-02-22T08:12:08.026Z,88
2023-02-22T08:13:08.854Z,88
2023-02-22T08:14:08.458Z,88
2023-02-22T08:15:08.353Z,88
2023-02-22T08:16:08.598Z,88
2023-02-22T08:17:10.845Z,88
2023-02-22T08:18:07.878Z,88
2023-02-22T08:19:08.789Z,88
2023-02-22T08:20:08.510Z,88
2023-02-22T08:21:08.073Z,88
2023-02-22T08:22:07.865Z,88
2023-02-22T08:23:08.865Z,88
2023-02-22T08:24:08.576Z,88
2023-02-22T08:25:08.068Z,88
2023-02-22T08:26:08.410Z,88
2023-02-22T08:27:08.193Z,88
2023-02-22T08:28:07.855Z,88
2023-02-22T08:29:07.971Z,88
2023-02-22T08:30:08.816Z,88
2023-02-22T08:31:07.990Z,88
2023-02-22T08:32:09.608Z,88
2023-02-22T08:33:09.357Z,88
2023-02-22T08:34:08.249Z,88
2023-02-22T08:35:08.002Z,88
2023-02-22T08:36:07.971Z,88
2023-02-22T08:37:08.668Z,88
2023-02-22T08:38:08.599Z,88
2023-02-22T08:39:08.328Z,88
2023-02-22T08:40:08.121Z,88
2023-02-22T08:41:08.182Z,88
2023-02-22T08:42:07.818Z,88
2023-02-22T08:43:08.701Z,88
2023-02-22T08:44:08.543Z,89
2023-02-22T08:45:08.135Z,89
2023-02-22T08:46:08.432Z,89
2023-02-22T08:47:08.082Z,89
2023-02-22T08:48:08.582Z,89
2023-02-22T08:49:08.340Z,89
2023-02-22T08:50:08.131Z,88
2023-02-22T08:51:08.800Z,88
2023-02-22T08:53:08.212Z,88
2023-02-22T08:54:07.981Z,88
2023-02-22T08:55:08.751Z,88
2023-02-22T08:56:08.074Z,88
2023-02-22T08:57:07.926Z,88
2023-02-22T08:58:08.602Z,88
2023-02-22T08:59:08.579Z,88
2023-02-22T09:00:08.401Z,88
2023-02-22T09:01:08.021Z,88
2023-02-22T09:02:08.157Z,88
2023-02-22T09:03:08.779Z,88
2023-02-22T09:04:08.520Z,88
2023-02-22T09:05:07.963Z,88
2023-02-22T09:06:08.682Z,88
2023-02-22T09:07:08.030Z,87
2023-02-22T09:08:08.841Z,88
2023-02-22T09:09:08.543Z,87
2023-02-22T09:10:08.154Z,87
2023-02-22T09:11:07.795Z,87
2023-02-22T09:13:08.718Z,87
2023-02-22T09:14:08.106Z,87
2023-02-22T09:15:08.924Z,87
2023-02-22T09:16:07.898Z,87
2023-02-22T09:17:10.941Z,87
2023-02-22T09:18:08.487Z,87
2023-02-22T09:19:08.240Z,87
2023-02-22T09:20:07.841Z,87
2023-02-22T09:21:08.231Z,87
2023-02-22T09:22:08.152Z,87
2023-02-22T09:23:08.728Z,87
2023-02-22T09:24:08.503Z,87
2023-02-22T09:25:21.305Z,87
2023-02-22T09:26:08.492Z,87
2023-02-22T09:27:08.063Z,87
2023-02-22T09:28:07.728Z,87
2023-02-22T09:29:08.615Z,87
2023-02-22T09:30:08.503Z,87
2023-02-22T09:31:07.847Z,87
2023-02-22T09:32:09.548Z,87
2023-02-22T09:33:09.105Z,87
2023-02-22T09:34:10.467Z,87
2023-02-22T09:35:07.819Z,87
2023-02-22T09:38:08.450Z,87
2023-02-22T09:39:08.126Z,87
2023-02-22T09:40:08.182Z,87
2023-02-22T09:41:07.976Z,87
2023-02-22T09:42:07.816Z,87
2023-02-22T09:43:08.577Z,87
2023-02-22T09:44:08.290Z,87
2023-02-22T09:45:07.961Z,87
2023-02-22T09:46:08.294Z,86
2023-02-22T09:47:08.705Z,86
2023-02-22T09:48:26.791Z,87
2023-02-22T09:49:07.620Z,86
2023-02-22T09:51:07.986Z,86
2023-02-22T09:52:07.959Z,86
2023-02-22T09:54:08.681Z,86
2023-02-22T09:55:08.465Z,86
2023-02-22T09:56:08.531Z,86
2023-02-22T09:57:08.383Z,86
2023-02-22T09:58:08.123Z,86
2023-02-22T09:59:08.271Z,85
2023-02-22T10:01:08.308Z,85
2023-02-22T10:02:08.052Z,85
2023-02-22T10:03:07.790Z,85
2023-02-22T10:04:08.595Z,85
2023-02-22T10:05:08.439Z,85
2023-02-22T10:06:08.084Z,85
2023-02-22T10:07:08.592Z,85
2023-02-22T10:08:08.349Z,85
2023-02-22T10:09:08.109Z,85
2023-02-22T10:10:07.883Z,85
2023-02-22T10:11:08.531Z,85
2023-02-22T10:13:07.933Z,85
2023-02-22T10:14:08.705Z,85
2023-02-22T10:15:08.703Z,85
2023-02-22T10:16:08.013Z,85
2023-02-22T10:17:08.661Z,85
2023-02-22T10:18:08.220Z,84
2023-02-22T10:19:08.235Z,84
2023-02-22T10:20:08.062Z,84
2023-02-22T10:21:09.372Z,84
2023-02-22T10:22:08.101Z,84
2023-02-22T10:24:08.369Z,84
2023-02-22T10:25:10.786Z,84
2023-02-22T10:27:08.045Z,84
2023-02-22T10:28:08.094Z,83
2023-02-22T10:29:08.746Z,84
2023-02-22T10:30:28.134Z,84
2023-02-22T10:31:08.737Z,84
2023-02-22T10:32:09.198Z,84
2023-02-22T10:33:08.581Z,84
2023-02-22T10:34:08.263Z,83
2023-02-22T10:36:08.008Z,83
2023-02-22T10:37:07.737Z,83
2023-02-22T10:38:08.519Z,83
2023-02-22T10:39:08.358Z,82
2023-02-22T10:41:08.438Z,82
2023-02-22T10:42:08.418Z,82
2023-02-22T10:43:08.076Z,82
2023-02-22T10:44:07.754Z,82
2023-02-22T10:45:08.539Z,82
2023-02-22T10:46:08.253Z,81
2023-02-22T10:47:08.652Z,81
2023-02-22T10:49:08.024Z,81
2023-02-22T10:50:08.148Z,81
2023-02-22T10:51:08.566Z,80
2023-02-22T10:52:08.088Z,80
2023-02-22T10:53:08.006Z,80
2023-02-22T10:54:08.533Z,80
2023-02-22T10:55:21.181Z,80
2023-02-22T10:56:08.248Z,80
2023-02-22T10:57:08.029Z,80
2023-02-22T10:58:08.533Z,80
2023-02-22T11:00:08.167Z,80
2023-02-22T11:01:08.820Z,80
2023-02-22T11:03:08.329Z,79
2023-02-22T11:04:07.884Z,79
2023-02-22T11:05:09.075Z,79
2023-02-22T11:06:11.089Z,79
2023-02-22T11:07:08.579Z,78
2023-02-22T11:08:08.442Z,78
2023-02-22T11:09:08.130Z,78
2023-02-22T11:10:07.859Z,78
2023-02-22T11:11:08.001Z,78
2023-02-22T11:12:08.697Z,78
2023-02-22T11:13:08.458Z,78
2023-02-22T11:14:08.188Z,78
2023-02-22T11:15:08.069Z,77
2023-02-22T11:16:08.124Z,77
2023-02-22T11:17:08.094Z,77
2023-02-22T11:18:10.707Z,77
2023-02-22T11:19:08.648Z,76
2023-02-22T11:20:08.254Z,76
2023-02-22T11:21:08.449Z,76
2023-02-22T11:25:08.561Z,75
2023-02-22T11:26:08.786Z,75
2023-02-22T11:27:08.504Z,75
2023-02-22T11:28:08.164Z,74
2023-02-22T11:29:08.016Z,74
2023-02-22T11:30:12.048Z,73
2023-02-22T11:31:09.048Z,73
2023-02-22T11:32:08.511Z,73
2023-02-22T11:33:08.172Z,73
2023-02-22T11:34:07.824Z,73
2023-02-22T11:36:08.342Z,72
2023-02-22T11:37:08.071Z,72
2023-02-22T11:38:07.777Z,72
2023-02-22T11:39:08.983Z,71
2023-02-22T11:40:08.513Z,71
2023-02-22T11:41:08.107Z,71
2023-02-22T11:42:07.563Z,71
2023-02-22T11:43:08.833Z,71
2023-02-22T11:45:08.037Z,71
2023-02-22T11:46:08.792Z,70
2023-02-22T11:47:08.746Z,70
2023-02-22T11:48:08.510Z,70
2023-02-22T11:49:08.419Z,70
2023-02-22T11:50:08.080Z,69
2023-02-22T11:51:08.428Z,69
2023-02-22T11:52:08.134Z,69
2023-02-22T11:53:07.853Z,69
2023-02-22T11:54:08.482Z,69
2023-02-22T11:55:08.327Z,69
2023-02-22T11:56:08.046Z,69
2023-02-22T11:57:07.767Z,69
2023-02-22T11:58:07.828Z,69
2023-02-22T11:59:08.620Z,69
2023-02-22T12:00:08.336Z,69
2023-02-22T12:01:07.810Z,69
2023-02-22T12:02:08.280Z,69
2023-02-22T12:03:08.151Z,69
2023-02-22T12:04:08.420Z,69
2023-02-22T12:05:08.605Z,69
2023-02-22T12:06:08.191Z,69
2023-02-22T12:07:07.959Z,68
2023-02-22T12:12:08.428Z,68
2023-02-22T12:13:08.081Z,68
2023-02-22T12:14:07.911Z,68
2023-02-22T12:15:08.790Z,68
2023-02-22T12:16:08.260Z,67
2023-02-22T12:17:08.536Z,67
2023-02-22T12:18:08.186Z,67
2023-02-22T12:19:08.232Z,67
2023-02-22T12:20:08.223Z,67
2023-02-22T12:21:08.421Z,67
2023-02-22T12:22:08.181Z,67
2023-02-22T12:23:07.793Z,67
2023-02-22T12:24:08.524Z,67
2023-02-22T12:25:15.932Z,67
2023-02-22T12:26:10.135Z,67
2023-02-22T12:27:10.660Z,67
2023-02-22T12:28:27.637Z,66
2023-02-22T12:29:07.761Z,66
2023-02-22T12:30:08.666Z,66
2023-02-22T12:31:08.658Z,65
2023-02-22T12:32:08.408Z,65
2023-02-22T12:33:10.442Z,65
2023-02-22T12:34:09.293Z,65
2023-02-22T12:35:08.515Z,65
2023-02-22T12:37:08.455Z,65
2023-02-22T12:38:07.894Z,65
2023-02-22T12:39:09.765Z,65
2023-02-22T12:40:08.532Z,65
2023-02-22T12:41:07.666Z,65
2023-02-22T12:42:08.047Z,65
2023-02-22T12:43:08.044Z,64
2023-02-22T12:44:08.526Z,64
2023-02-22T12:45:11.336Z,65
2023-02-22T12:46:08.696Z,65
2023-02-22T12:47:08.046Z,65
2023-02-22T12:48:07.894Z,65
2023-02-22T12:49:07.833Z,65
2023-02-22T12:50:07.675Z,65
2023-02-22T12:51:07.448Z,65
2023-02-22T12:52:22.979Z,64
2023-02-22T12:53:07.828Z,64
2023-02-22T12:54:07.707Z,64
2023-02-22T12:55:08.562Z,64
2023-02-22T12:56:08.418Z,64
2023-02-22T12:57:08.104Z,64
2023-02-22T12:58:07.799Z,64
2023-02-22T12:59:08.542Z,64
2023-02-22T13:00:08.329Z,64
2023-02-22T13:01:09.299Z,64
2023-02-22T13:02:07.988Z,64
2023-02-22T13:03:07.758Z,64
2023-02-22T13:04:22.258Z,64
2023-02-22T13:05:08.407Z,64
2023-02-22T13:06:07.718Z,64
2023-02-22T13:07:08.314Z,64
2023-02-22T13:08:08.064Z,64
2023-02-22T13:09:07.797Z,64
2023-02-22T13:10:08.478Z,64
2023-02-22T13:11:07.912Z,64
2023-02-22T13:12:08.341Z,64
2023-02-22T13:13:07.920Z,64
2023-02-22T13:15:07.785Z,64
2023-02-22T13:17:08.628Z,64
2023-02-22T13:18:08.253Z,64
2023-02-22T13:19:08.006Z,64
2023-02-22T13:20:08.014Z,64
2023-02-22T13:21:08.213Z,64
2023-02-22T13:22:07.890Z,64
2023-02-22T13:23:07.621Z,63
2023-02-22T13:24:08.714Z,63
2023-02-22T13:25:08.183Z,63
2023-02-22T13:26:08.602Z,63
2023-02-22T13:27:08.426Z,63
2023-02-22T13:28:07.986Z,63
2023-02-22T13:29:08.168Z,63
2023-02-22T13:30:08.173Z,63
2023-02-22T13:31:08.653Z,63
2023-02-22T13:32:08.422Z,63
2023-02-22T13:33:08.014Z,63
2023-02-22T13:34:07.740Z,63
2023-02-22T13:35:08.375Z,63
2023-02-22T13:36:07.574Z,63
2023-02-22T13:37:08.287Z,63
2023-02-22T13:38:08.389Z,63
2023-02-22T13:40:07.708Z,63
2023-02-22T13:41:07.951Z,63
2023-02-22T13:42:07.865Z,63
2023-02-22T13:43:07.794Z,63
2023-02-22T13:45:08.485Z,63
2023-02-22T13:46:07.984Z,63
2023-02-22T13:47:08.742Z,64
2023-02-22T13:48:08.276Z,64
2023-02-22T13:49:08.159Z,64
2023-02-22T13:50:07.952Z,64
2023-02-22T13:51:07.942Z,64
2023-02-22T13:53:08.276Z,64
2023-02-22T13:54:08.127Z,64
2023-02-22T13:55:07.910Z,64
2023-02-22T13:58:08.555Z,64
2023-02-22T13:59:08.349Z,64
2023-02-22T14:00:08.190Z,64
2023-02-22T14:01:07.755Z,64
2023-02-22T14:02:08.486Z,64
2023-02-22T14:03:08.309Z,64
2023-02-22T14:04:08.133Z,64
2023-02-22T14:05:07.784Z,64
2023-02-22T14:06:07.761Z,64
2023-02-22T14:07:08.615Z,64
2023-02-22T14:08:08.235Z,64
2023-02-22T14:09:07.955Z,64
2023-02-22T14:10:08.003Z,64
2023-02-22T14:11:08.505Z,64
2023-02-22T14:14:07.668Z,64
2023-02-22T14:15:28.501Z,64
2023-02-22T14:16:08.172Z,64
2023-02-22T14:17:07.889Z,64
2023-02-22T14:18:08.417Z,64
2023-02-22T14:19:08.469Z,64
2023-02-22T14:22:08.063Z,64
2023-02-22T14:23:07.840Z,64
2023-02-22T14:24:08.726Z,64
2023-02-22T14:25:08.766Z,64
2023-02-22T14:26:07.970Z,64
2023-02-22T14:27:08.658Z,64
2023-02-22T14:28:08.531Z,65
2023-02-22T14:29:07.835Z,65
2023-02-22T14:30:08.003Z,65
2023-02-22T14:31:08.151Z,65
2023-02-22T14:32:08.400Z,64
2023-02-22T14:33:07.817Z,64
2023-02-22T14:34:08.537Z,65
2023-02-22T14:35:24.058Z,64
2023-02-22T14:36:08.053Z,65
2023-02-22T14:37:07.756Z,65
2023-02-22T14:38:08.480Z,65
2023-02-22T14:39:08.234Z,65
2023-02-22T14:40:07.863Z,65
2023-02-22T14:41:08.648Z,65
2023-02-22T14:42:08.331Z,65
2023-02-22T14:43:07.730Z,65
2023-02-22T14:44:07.817Z,65
2023-02-22T14:45:08.597Z,65
2023-02-22T14:46:08.166Z,65
2023-02-22T14:47:07.772Z,65
2023-02-22T14:48:08.544Z,65
2023-02-22T14:49:08.207Z,65
2023-02-22T14:50:08.186Z,65
2023-02-22T14:51:25.190Z,65
2023-02-22T14:52:08.064Z,65
2023-02-22T14:53:07.970Z,65
2023-02-22T14:54:07.560Z,65
2023-02-22T14:56:08.111Z,65
2023-02-22T14:57:08.122Z,65
2023-02-22T14:58:07.856Z,65
2023-02-22T14:59:08.509Z,65
2023-02-22T15:00:08.309Z,65
2023-02-22T15:01:07.695Z,65
2023-02-22T15:02:18.429Z,65
2023-02-22T15:03:08.348Z,65
2023-02-22T15:04:15.409Z,64
2023-02-22T15:05:07.914Z,64
2023-02-22T15:06:08.044Z,64
2023-02-22T15:07:07.839Z,64
2023-02-22T15:09:08.301Z,64
2023-02-22T15:10:08.463Z,64
2023-02-22T15:11:07.888Z,64
2023-02-22T15:12:08.502Z,64
2023-02-22T15:13:08.266Z,65
2023-02-22T15:14:24.237Z,65
2023-02-22T15:15:08.580Z,64
2023-02-22T15:16:08.754Z,64
2023-02-22T15:17:08.839Z,65
2023-02-22T15:20:07.821Z,64
2023-02-22T15:21:13.317Z,64
2023-02-22T15:22:07.766Z,65
2023-02-22T15:23:08.621Z,65
2023-02-22T15:24:08.359Z,65
2023-02-22T15:25:08.193Z,65
2023-02-22T15:26:08.012Z,65
2023-02-22T15:27:11.258Z,65
2023-02-22T15:28:07.915Z,65
2023-02-22T15:29:07.893Z,65
2023-02-22T15:30:09.319Z,65
2023-02-22T15:31:07.767Z,65
2023-02-22T15:32:09.140Z,65
2023-02-22T15:33:11.281Z,65
2023-02-22T15:34:08.359Z,65
2023-02-22T15:35:07.856Z,65
2023-02-22T15:36:08.023Z,65
2023-02-22T15:37:10.149Z,65
2023-02-22T15:38:08.904Z,65
2023-02-22T15:39:08.274Z,65
2023-02-22T15:40:08.471Z,65
2023-02-22T15:41:08.276Z,66
2023-02-22T15:43:08.563Z,66
2023-02-22T15:44:27.456Z,66
2023-02-22T15:45:08.510Z,66
2023-02-22T15:46:08.260Z,66
2023-02-22T15:47:08.676Z,66
2023-02-22T15:48:08.540Z,66
2023-02-22T15:49:08.131Z,66
2023-02-22T15:50:10.067Z,66
2023-02-22T15:51:08.544Z,66
2023-02-22T15:52:08.065Z,66
2023-02-22T15:53:08.108Z,66
2023-02-22T15:54:15.585Z,66
2023-02-22T15:55:08.295Z,66
2023-02-22T15:56:08.318Z,66
2023-02-22T15:57:08.107Z,66
2023-02-22T15:58:07.965Z,66
2023-02-22T15:59:08.690Z,66